Time;durP1;ratioP1;P1;durP2;ratioP2;P2;SDS_P1;SDS_P2;PMS_P1;PMS_P2;Temp;Humidity;BMP_temperature;BMP_pressure;BME280_temperature;BME280_humidity;BME280_pressure;Samples;Min_cycle;Max_cycle;Signal;HPM_P1;HPM_P2
2021/08/09 00:01:43;;;;;;;6.75;2.75;;;;;;;14.29;100.00;101275.91;5173398;28;20065;-68
2021/08/09 00:04:14;;;;;;;5.97;2.63;;;;;;;14.25;100.00;101274.56;5174182;28;20436;-69
2021/08/09 00:06:46;;;;;;;7.05;2.40;;;;;;;14.27;100.00;101279.66;5173700;28;20396;-68
2021/08/09 00:09:17;;;;;;;6.13;2.78;;;;;;;14.25;100.00;101281.63;5172872;28;20532;-68
2021/08/09 00:11:48;;;;;;;7.85;2.90;;;;;;;14.23;100.00;101286.19;5173927;28;20477;-68
2021/08/09 00:14:20;;;;;;;7.13;3.10;;;;;;;14.18;100.00;101285.81;5173155;28;20050;-69
2021/08/09 00:16:51;;;;;;;9.23;3.08;;;;;;;14.16;100.00;101285.94;5172304;28;20034;-69
2021/08/09 00:19:22;;;;;;;10.10;3.40;;;;;;;14.17;100.00;101289.38;5174491;28;20095;-69
2021/08/09 00:21:54;;;;;;;6.45;2.53;;;;;;;14.13;100.00;101291.50;5173647;28;20074;-68
2021/08/09 00:24:25;;;;;;;7.78;3.28;;;;;;;14.10;100.00;101291.78;5173419;28;20027;-68
2021/08/09 00:26:57;;;;;;;9.63;2.85;;;;;;;14.10;100.00;101295.25;5172121;28;20030;-69
2021/08/09 00:29:28;;;;;;;8.35;3.05;;;;;;;14.09;100.00;101295.38;5173559;28;20420;-68
2021/08/09 00:31:59;;;;;;;9.10;3.17;;;;;;;14.07;100.00;101282.34;5173566;28;20015;-69
2021/08/09 00:34:33;;;;;;;7.80;2.78;;;;;;;14.00;100.00;101289.16;5171842;28;20034;-68
2021/08/09 00:37:04;;;;;;;6.03;3.03;;;;;;;14.01;100.00;101292.63;5171515;28;20023;-68
2021/08/09 00:39:36;;;;;;;7.35;3.53;;;;;;;13.94;100.00;101286.25;5173753;28;20058;-69
2021/08/09 00:42:07;;;;;;;8.43;2.60;;;;;;;13.99;100.00;101292.78;5173040;28;20572;-69
2021/08/09 00:44:39;;;;;;;14.02;3.85;;;;;;;13.95;100.00;101295.84;5173267;28;20041;-69
2021/08/09 00:47:10;;;;;;;7.60;3.10;;;;;;;13.91;100.00;101290.03;5173279;28;20022;-69
2021/08/09 00:49:41;;;;;;;14.82;3.10;;;;;;;13.91;100.00;101292.66;5173666;28;20125;-68
2021/08/09 00:52:14;;;;;;;7.18;2.78;;;;;;;13.87;100.00;101291.28;5172273;28;20465;-69
2021/08/09 00:54:45;;;;;;;8.13;2.38;;;;;;;13.85;100.00;101290.56;5173416;28;20521;-69
2021/08/09 00:57:17;;;;;;;8.65;2.88;;;;;;;13.84;100.00;101292.38;5173703;28;20162;-69
2021/08/09 00:59:49;;;;;;;7.65;3.20;;;;;;;13.84;100.00;101289.75;5172180;28;20031;-69
2021/08/09 01:02:20;;;;;;;10.00;3.80;;;;;;;13.82;100.00;101296.13;5172886;28;20019;-69
2021/08/09 01:04:51;;;;;;;7.93;2.85;;;;;;;13.81;100.00;101291.81;5172928;28;20146;-68
2021/08/09 01:07:25;;;;;;;7.65;2.80;;;;;;;13.78;100.00;101298.19;5172614;28;20110;-68
2021/08/09 01:10:06;;;;;;;7.65;2.83;;;;;;;13.81;100.00;101297.91;5171559;28;20389;-69
2021/08/09 01:13:03;;;;;;;10.45;2.90;;;;;;;13.85;100.00;101296.66;5171678;28;20520;-69
2021/08/09 01:15:38;;;;;;;7.75;3.15;;;;;;;13.73;100.00;101297.78;5172126;28;20477;-68
2021/08/09 01:18:12;;;;;;;7.25;3.17;;;;;;;13.72;100.00;101309.31;5171777;28;20396;-69
2021/08/09 01:20:53;;;;;;;11.70;3.45;;;;;;;13.70;100.00;101297.25;5172510;28;20122;-69
2021/08/09 01:23:35;;;;;;;9.05;3.03;;;;;;;13.69;100.00;101293.78;5172659;28;20111;-69
2021/08/09 01:26:19;;;;;;;10.07;3.17;;;;;;;13.68;100.00;101299.19;5171974;28;20068;-69
2021/08/09 01:28:55;;;;;;;9.75;3.75;;;;;;;13.68;100.00;101296.56;5168784;28;20377;-69
2021/08/09 01:31:38;;;;;;;7.03;2.72;;;;;;;13.65;100.00;101295.03;5171137;28;20038;-69
2021/08/09 01:34:11;;;;;;;9.93;3.75;;;;;;;13.60;100.00;101298.09;5171983;28;20026;-69
2021/08/09 01:36:45;;;;;;;;;;;;;;;13.83;100.00;101298.63;5171016;28;20660;-68
2021/08/09 01:39:18;;;;;;;9.35;3.00;;;;;;;13.55;100.00;101294.19;5186842;28;19944;-69
2021/08/09 01:41:51;;;;;;;7.57;3.10;;;;;;;13.53;100.00;101296.13;5172392;28;20035;-69
2021/08/09 01:44:24;;;;;;;8.77;3.15;;;;;;;13.52;100.00;101297.09;5172334;28;20098;-69
2021/08/09 01:46:55;;;;;;;8.05;3.50;;;;;;;13.49;100.00;101298.22;5169922;28;20058;-69
2021/08/09 01:49:28;;;;;;;12.00;3.22;;;;;;;13.47;100.00;101310.66;5186079;28;20026;-68
2021/08/09 01:52:02;;;;;;;9.50;3.20;;;;;;;13.47;100.00;101307.22;5171982;28;20034;-69
2021/08/09 01:54:34;;;;;;;7.68;2.80;;;;;;;13.41;100.00;101302.47;5170838;28;20967;-69
2021/08/09 01:57:05;;;;;;;6.75;2.80;;;;;;;13.41;100.00;101305.97;5172462;28;20089;-68
2021/08/09 01:59:36;;;;;;;7.03;2.47;;;;;;;13.43;100.00;101311.91;5171912;28;20026;-69
2021/08/09 02:02:08;;;;;;;8.98;3.05;;;;;;;13.41;100.00;101311.25;5170573;28;20031;-68
2021/08/09 02:04:39;;;;;;;6.47;3.10;;;;;;;13.39;100.00;101316.63;5168110;28;20061;-69
2021/08/09 02:07:10;;;;;;;11.80;3.60;;;;;;;13.39;100.00;101316.63;5169515;28;20031;-69
2021/08/09 02:09:42;;;;;;;10.40;3.40;;;;;;;13.39;100.00;101316.63;5171708;28;20146;-69
2021/08/09 02:12:13;;;;;;;8.98;3.13;;;;;;;13.36;100.00;101306.34;5172269;28;20481;-69
2021/08/09 02:14:51;;;;;;;9.95;3.10;;;;;;;13.39;100.00;101316.63;5169088;28;20070;-69
2021/08/09 02:17:40;;;;;;;10.05;2.90;;;;;;;13.42;100.00;101314.69;5171512;28;20113;-68
2021/08/09 02:20:24;;;;;;;11.32;3.63;;;;;;;13.41;100.00;101311.25;5172109;28;20505;-69
2021/08/09 02:23:01;;;;;;;10.63;3.30;;;;;;;13.38;100.00;101314.97;5169897;28;20505;-68
2021/08/09 02:25:35;;;;;;;7.35;2.95;;;;;;;13.36;100.00;101316.88;5171048;28;20727;-68
2021/08/09 02:28:18;;;;;;;8.88;2.80;;;;;;;13.42;100.00;101310.25;5171921;28;20027;-68
2021/08/09 02:30:56;;;;;;;7.90;3.30;;;;;;;13.39;100.00;101305.25;5169260;28;20034;-68
2021/08/09 02:33:30;;;;;;;13.13;3.45;;;;;;;13.41;100.00;101313.00;5170218;28;20110;-68
2021/08/09 02:36:03;;;;;;;8.68;3.33;;;;;;;13.39;100.00;101311.34;5171066;28;20027;-68
2021/08/09 02:38:35;;;;;;;8.40;3.35;;;;;;;13.41;100.00;101307.75;5172161;28;20026;-68
2021/08/09 02:41:07;;;;;;;14.00;3.40;;;;;;;13.40;100.00;101301.66;5170706;28;20026;-68
2021/08/09 02:43:39;;;;;;;7.22;2.90;;;;;;;13.42;100.00;101306.81;5170957;28;20026;-68
2021/08/09 02:46:11;;;;;;;8.88;3.20;;;;;;;13.44;100.00;101302.22;5171437;28;20027;-68
2021/08/09 02:48:42;;;;;;;7.35;2.92;;;;;;;13.42;100.00;101305.00;5171357;28;20496;-68
2021/08/09 02:51:17;;;;;;;10.38;3.22;;;;;;;13.46;100.00;101306.38;5171336;28;20493;-68
2021/08/09 02:53:50;;;;;;;10.00;3.60;;;;;;;13.41;100.00;101302.47;5170851;28;20034;-68
2021/08/09 02:56:23;;;;;;;8.40;3.25;;;;;;;13.48;100.00;101309.69;5171417;28;20043;-68
2021/08/09 02:58:55;;;;;;;10.95;3.58;;;;;;;13.46;100.00;101314.28;5171027;28;20031;-68
2021/08/09 03:01:30;;;;;;;7.38;2.97;;;;;;;13.47;100.00;101310.66;5174845;28;20053;-68
2021/08/09 03:04:02;;;;;;;9.65;3.35;;;;;;;13.46;100.00;101309.00;5174242;28;20101;-68
2021/08/09 03:06:34;;;;;;;9.68;3.70;;;;;;;13.48;100.00;101307.06;5174739;28;20031;-68
2021/08/09 03:09:07;;;;;;;9.15;2.92;;;;;;;13.48;100.00;101311.50;5169540;28;20520;-68
2021/08/09 03:11:41;;;;;;;13.25;3.60;;;;;;;13.49;100.00;101303.47;5175549;28;20030;-68
2021/08/09 03:14:26;;;;;;;8.27;3.17;;;;;;;13.53;100.00;101306.66;5173678;28;20118;-68
2021/08/09 03:17:00;;;;;;;4.78;2.53;;;;;;;13.48;100.00;101317.59;5173672;28;20595;-68
2021/08/09 03:19:32;;;;;;;10.20;3.42;;;;;;;13.47;100.00;101308.03;5175326;28;20207;-68
2021/08/09 03:22:03;;;;;;;8.68;3.20;;;;;;;13.50;100.00;101317.47;5175110;28;20043;-68
2021/08/09 03:24:34;;;;;;;7.50;3.30;;;;;;;13.50;100.00;101313.03;5175090;28;20061;-68
2021/08/09 03:27:06;;;;;;;7.35;3.08;;;;;;;13.50;100.00;101317.47;5172909;28;20031;-68
2021/08/09 03:29:38;;;;;;;8.07;3.47;;;;;;;13.50;100.00;101318.28;5173559;28;20031;-68
2021/08/09 03:32:09;;;;;;;9.35;3.28;;;;;;;13.51;100.00;101316.50;5175882;28;20034;-68
2021/08/09 03:34:40;;;;;;;7.80;3.47;;;;;;;13.51;100.00;101319.13;5173565;28;20497;-68
2021/08/09 03:37:11;;;;;;;10.85;3.30;;;;;;;13.52;100.00;101315.50;5175227;28;20038;-68
2021/08/09 03:39:43;;;;;;;12.63;3.88;;;;;;;13.53;100.00;101309.31;5174934;28;20037;-68
2021/08/09 03:42:14;;;;;;;7.13;3.08;;;;;;;13.53;100.00;101311.94;5174787;28;20077;-68
2021/08/09 03:44:46;;;;;;;10.95;3.67;;;;;;;13.52;100.00;101318.97;5173426;28;20515;-68
2021/08/09 03:47:17;;;;;;;15.70;3.72;;;;;;;13.53;100.00;101323.28;5173538;28;20472;-68
2021/08/09 03:49:49;;;;;;;9.80;3.65;;;;;;;13.54;100.00;101319.69;5174287;28;20031;-68
2021/08/09 03:52:20;;;;;;;8.10;2.67;;;;;;;13.54;100.00;101319.69;5174389;28;20019;-68
2021/08/09 03:54:51;;;;;;;9.43;3.30;;;;;;;13.47;100.00;101310.66;5172778;28;20074;-68
2021/08/09 03:57:23;;;;;;;13.73;3.35;;;;;;;13.57;100.00;101321.22;5174591;28;20114;-68
2021/08/09 03:59:54;;;;;;;10.25;3.50;;;;;;;13.55;100.00;101317.88;5173688;28;20094;-68
2021/08/09 04:02:30;;;;;;;10.77;3.35;;;;;;;13.54;100.00;101314.41;5169644;28;20224;-68
2021/08/09 04:05:01;;;;;;;8.70;3.03;;;;;;;13.54;100.00;101313.59;5173041;28;20055;-68
2021/08/09 04:07:32;;;;;;;10.98;3.22;;;;;;;13.54;100.00;101319.69;5173126;28;20113;-68
2021/08/09 04:10:07;;;;;;;9.13;3.17;;;;;;;13.56;100.00;101320.38;5173815;28;20037;-68
2021/08/09 04:12:38;;;;;;;8.10;2.90;;;;;;;13.54;100.00;101317.06;5172750;28;20432;-68
2021/08/09 04:15:10;;;;;;;7.85;3.22;;;;;;;13.56;100.00;101315.13;5173204;28;20022;-68
2021/08/09 04:17:42;;;;;;;8.35;3.60;;;;;;;13.58;100.00;101321.06;5174245;28;20023;-68
2021/08/09 04:20:13;;;;;;;9.55;3.25;;;;;;;13.56;100.00;101320.38;5173741;28;20110;-68
2021/08/09 04:22:44;;;;;;;9.23;3.60;;;;;;;13.57;100.00;101318.59;5173587;28;20057;-68
2021/08/09 04:25:16;;;;;;;15.70;4.00;;;;;;;13.58;100.00;101330.78;5173196;28;20034;-68
2021/08/09 04:27:47;;;;;;;10.20;3.20;;;;;;;13.60;100.00;101334.13;5173765;28;20046;-68
2021/08/09 04:30:18;;;;;;;8.40;3.22;;;;;;;13.59;100.00;101330.63;5173610;28;20034;-68
2021/08/09 04:32:50;;;;;;;9.85;3.58;;;;;;;13.60;100.00;101336.75;5175051;28;20027;-68
2021/08/09 04:35:21;;;;;;;10.45;3.78;;;;;;;13.62;100.00;101340.88;5173346;28;20094;-68
2021/08/09 04:37:52;;;;;;;9.43;3.67;;;;;;;13.63;100.00;101339.06;5171899;28;20030;-68
2021/08/09 04:40:24;;;;;;;9.85;3.45;;;;;;;13.67;100.00;101344.91;5173671;28;20536;-68
2021/08/09 04:42:55;;;;;;;9.05;3.70;;;;;;;13.68;100.00;101336.06;5174056;28;20043;-68
2021/08/09 04:45:26;;;;;;;9.68;4.07;;;;;;;13.68;100.00;101330.78;5172975;28;20054;-68
2021/08/09 04:47:57;;;;;;;12.15;4.35;;;;;;;13.62;100.00;101319.00;5172013;28;20113;-68
2021/08/09 04:50:29;;;;;;;10.02;4.07;;;;;;;13.72;100.00;101330.38;5173086;28;20030;-68
2021/08/09 04:53:00;;;;;;;15.40;4.80;;;;;;;13.74;100.00;101333.69;5173337;28;20034;-68
2021/08/09 04:55:31;;;;;;;12.55;4.72;;;;;;;13.75;100.00;101324.81;5171588;28;20065;-68
2021/08/09 04:58:03;;;;;;;12.15;4.45;;;;;;;13.77;100.00;101330.78;5173419;28;20035;-68
2021/08/09 05:00:34;;;;;;;8.18;3.33;;;;;;;13.79;100.00;101330.66;5172129;28;20515;-68
2021/08/09 05:03:06;;;;;;;8.20;3.88;;;;;;;13.80;100.00;101335.75;5173457;28;20089;-68
2021/08/09 05:05:37;;;;;;;8.18;3.85;;;;;;;13.82;100.00;101327.72;5171903;28;20495;-68
2021/08/09 05:08:08;;;;;;;9.13;4.25;;;;;;;13.85;100.00;101335.34;5173369;28;20503;-68
2021/08/09 05:10:40;;;;;;;13.70;3.58;;;;;;;13.87;100.00;101336.06;5172295;28;20046;-68
2021/08/09 05:13:11;;;;;;;8.27;3.10;;;;;;;13.88;100.00;101335.91;5172206;28;20112;-68
2021/08/09 05:15:42;;;;;;;12.23;3.67;;;;;;;13.90;100.00;101334.91;5172982;28;20062;-68
2021/08/09 05:18:15;;;;;;;8.80;3.90;;;;;;;13.92;100.00;101336.44;5171415;28;20059;-68
2021/08/09 05:20:47;;;;;;;7.65;3.72;;;;;;;13.94;100.00;101341.56;5172288;28;20074;-68
2021/08/09 05:23:18;;;;;;;8.30;3.60;;;;;;;13.98;100.00;101349.06;5170189;28;20400;-68
2021/08/09 05:25:50;;;;;;;8.98;3.10;;;;;;;13.99;100.00;101349.91;5171191;28;20298;-68
2021/08/09 05:28:21;;;;;;;8.15;3.70;;;;;;;14.01;100.00;101345.31;5171944;28;20400;-68
2021/08/09 05:30:52;;;;;;;11.32;3.58;;;;;;;14.04;100.00;101343.22;5172533;28;20042;-68
2021/08/09 05:33:23;;;;;;;8.43;4.05;;;;;;;14.06;100.00;101345.75;5172411;28;20503;-68
2021/08/09 05:35:55;;;;;;;9.40;3.60;;;;;;;14.08;100.00;101343.78;5170640;28;20508;-68
2021/08/09 05:38:27;;;;;;;8.48;3.80;;;;;;;14.10;100.00;101339.22;5171554;28;20477;-68
2021/08/09 05:40:59;;;;;;;8.88;4.15;;;;;;;14.10;100.00;101340.03;5172365;28;20054;-68
2021/08/09 05:43:30;;;;;;;7.50;3.60;;;;;;;14.12;100.00;101345.16;5170451;28;20101;-68
2021/08/09 05:46:02;;;;;;;8.00;3.65;;;;;;;14.13;100.00;101338.94;5172958;28;20043;-68
2021/08/09 05:48:34;;;;;;;8.52;3.80;;;;;;;14.15;100.00;101342.25;5171983;28;20034;-68
2021/08/09 05:51:05;;;;;;;7.10;3.35;;;;;;;14.18;100.00;101341.16;5172449;28;20531;-68
2021/08/09 05:53:36;;;;;;;8.60;3.13;;;;;;;14.22;100.00;101347.78;5171013;28;20031;-68
2021/08/09 05:56:07;;;;;;;9.80;3.15;;;;;;;14.27;100.00;101349.00;5172087;28;20015;-68
2021/08/09 05:58:39;;;;;;;6.65;3.40;;;;;;;14.31;100.00;101352.19;5171327;28;20067;-68
2021/08/09 06:01:10;;;;;;;7.57;3.55;;;;;;;14.36;100.00;101356.09;5172675;28;20027;-68
2021/08/09 06:03:41;;;;;;;8.90;3.28;;;;;;;14.42;100.00;101343.31;5171562;28;20029;-68
2021/08/09 06:06:19;;;;;;;7.05;2.90;;;;;;;14.53;100.00;101356.34;5171649;28;20485;-69
2021/08/09 06:08:51;;;;;;;8.15;3.53;;;;;;;14.57;100.00;101352.44;5172007;28;20035;-68
2021/08/09 06:11:22;;;;;;;6.50;2.85;;;;;;;14.65;100.00;101349.91;5172142;28;20593;-68
2021/08/09 06:13:54;;;;;;;9.57;3.13;;;;;;;14.69;100.00;101346.00;5170575;28;20067;-69
2021/08/09 06:16:25;;;;;;;10.18;3.80;;;;;;;14.73;100.00;101360.56;5170032;28;20680;-69
2021/08/09 06:18:56;;;;;;;7.43;3.17;;;;;;;14.74;100.00;101364.06;5171762;28;20027;-69
2021/08/09 06:21:28;;;;;;;8.30;3.10;;;;;;;14.79;100.00;101365.28;5171330;28;20493;-69
2021/08/09 06:23:59;;;;;;;10.32;3.33;;;;;;;14.80;100.00;101364.28;5169915;28;20484;-69
2021/08/09 06:26:30;;;;;;;8.20;3.50;;;;;;;14.82;100.00;101366.81;5171278;28;20037;-69
2021/08/09 06:29:01;;;;;;;6.28;2.85;;;;;;;14.81;100.00;101352.78;5170775;28;20089;-69
2021/08/09 06:31:33;;;;;;;8.57;3.10;;;;;;;14.89;100.00;101367.91;5171657;28;20058;-69
2021/08/09 06:34:04;;;;;;;8.52;3.67;;;;;;;14.94;100.00;101362.16;5169480;28;20019;-69
2021/08/09 06:36:36;;;;;;;6.13;3.05;;;;;;;14.95;100.00;101371.75;5168618;28;20556;-69
2021/08/09 06:39:11;;;;;;;5.82;3.13;;;;;;;15.00;100.00;101365.06;5170560;28;20404;-69
2021/08/09 06:41:42;;;;;;;6.53;3.30;;;;;;;15.03;100.00;101370.03;5167108;28;20033;-69
2021/08/09 06:44:14;;;;;;;8.52;2.90;;;;;;;15.07;100.00;101367.94;5169676;28;20030;-68
2021/08/09 06:46:45;;;;;;;8.75;3.05;;;;;;;15.12;100.00;101363.06;5170575;28;20449;-68
2021/08/09 06:49:16;;;;;;;8.90;3.33;;;;;;;15.20;100.00;101363.16;5170528;28;20037;-68
2021/08/09 06:51:48;;;;;;;7.90;3.58;;;;;;;15.28;100.00;101368.53;5170068;28;20125;-69
2021/08/09 06:54:21;;;;;;;8.60;3.38;;;;;;;15.38;100.00;101365.84;5171209;28;20023;-69
2021/08/09 06:56:52;;;;;;;6.95;3.53;;;;;;;15.43;100.00;101370.66;5171959;28;20023;-69
2021/08/09 06:59:23;;;;;;;7.90;3.13;;;;;;;15.50;100.00;101372.56;5170220;28;20023;-69
2021/08/09 07:01:54;;;;;;;7.10;2.72;;;;;;;15.57;100.00;101372.78;5168348;28;20404;-69
2021/08/09 07:04:26;;;;;;;8.02;3.50;;;;;;;15.69;100.00;101368.16;5168510;28;20411;-69
2021/08/09 07:06:57;;;;;;;9.35;3.60;;;;;;;15.75;100.00;101363.06;5169782;28;20026;-69
2021/08/09 07:09:28;;;;;;;10.70;3.45;;;;;;;15.77;100.00;101366.41;5169441;28;20110;-69
2021/08/09 07:12:00;;;;;;;9.50;3.30;;;;;;;15.82;100.00;101361.50;5168980;28;20109;-69
2021/08/09 07:14:31;;;;;;;5.43;2.92;;;;;;;15.93;100.00;101365.72;5168078;28;20034;-69
2021/08/09 07:17:04;;;;;;;5.35;2.72;;;;;;;16.03;100.00;101349.78;5170238;28;20105;-69
2021/08/09 07:19:35;;;;;;;5.80;2.58;;;;;;;16.08;100.00;101358.06;5169648;28;20476;-69
2021/08/09 07:22:07;;;;;;;7.85;3.10;;;;;;;16.20;100.00;101362.13;5169274;28;20129;-70
2021/08/09 07:24:38;;;;;;;6.13;3.08;;;;;;;16.26;100.00;101366.81;5170103;28;20078;-68
2021/08/09 07:27:09;;;;;;;9.20;2.58;;;;;;;16.34;100.00;101368.69;5170733;28;20023;-70
2021/08/09 07:29:41;;;;;;;5.47;2.78;;;;;;;16.41;100.00;101368.91;5169152;28;20486;-69
2021/08/09 07:32:12;;;;;;;9.90;3.20;;;;;;;16.58;100.00;101370.63;5170643;28;20058;-69
2021/08/09 07:34:43;;;;;;;6.80;2.65;;;;;;;16.73;100.00;101378.81;5171145;28;20031;-69
2021/08/09 07:37:14;;;;;;;9.25;3.42;;;;;;;16.80;100.00;101371.94;5168345;28;20033;-69
2021/08/09 07:39:46;;;;;;;4.60;2.30;;;;;;;16.93;100.00;101374.16;5169654;28;20050;-69
2021/08/09 07:42:17;;;;;;;8.18;3.20;;;;;;;17.02;100.00;101368.75;5171597;28;20248;-70
2021/08/09 07:44:49;;;;;;;7.38;2.78;;;;;;;17.10;100.00;101370.59;5169837;28;20054;-68
2021/08/09 07:47:20;;;;;;;6.78;2.75;;;;;;;17.16;100.00;101375.25;5170605;28;20572;-69
2021/08/09 07:49:52;;;;;;;8.05;2.50;;;;;;;17.15;100.00;101375.41;5173973;28;20030;-69
2021/08/09 07:52:23;;;;;;;9.70;2.28;;;;;;;17.18;100.00;101370.63;5174448;28;20026;-69
2021/08/09 07:54:55;;;;;;;7.07;2.50;;;;;;;17.27;100.00;101374.13;5174185;28;20392;-69
2021/08/09 07:57:26;;;;;;;4.90;2.10;;;;;;;17.42;100.00;101379.63;5171674;28;20123;-70
2021/08/09 07:59:58;;;;;;;7.55;2.40;;;;;;;17.44;100.00;101373.19;5166603;28;20039;-70
2021/08/09 08:02:29;;;;;;;8.70;2.60;;;;;;;17.50;100.00;101377.84;5161467;28;20065;-69
2021/08/09 08:05:02;;;;;;;7.10;2.45;;;;;;;17.55;100.00;101374.69;5162276;28;20034;-69
2021/08/09 08:07:33;;;;;;;5.35;2.40;;;;;;;17.61;100.00;101374.03;5159993;28;20054;-69
2021/08/09 08:10:05;;;;;;;7.77;2.07;;;;;;;17.77;100.00;101367.13;5159576;28;20042;-69
2021/08/09 08:12:36;;;;;;;6.15;2.22;;;;;;;17.93;100.00;101364.50;5159545;28;20037;-69
2021/08/09 08:15:08;;;;;;;5.90;2.30;;;;;;;18.08;100.00;101368.16;5160106;28;20576;-69
2021/08/09 08:17:39;;;;;;;5.15;2.63;;;;;;;18.08;100.00;101360.19;5161010;28;20386;-69
2021/08/09 08:20:11;;;;;;;5.20;1.90;;;;;;;18.17;100.00;101367.13;5162136;28;20023;-69
2021/08/09 08:22:42;;;;;;;6.43;2.17;;;;;;;18.29;100.00;101361.47;5161355;28;20509;-69
2021/08/09 08:25:14;;;;;;;6.50;2.10;;;;;;;18.31;100.00;101357.69;5161421;28;20065;-70
2021/08/09 08:28:00;;;;;;;6.67;2.17;;;;;;;18.43;100.00;101358.16;5162107;28;20423;-69
2021/08/09 08:30:31;;;;;;;6.22;1.92;;;;;;;18.36;100.00;101370.44;5177055;23;20089;-69
2021/08/09 08:33:03;;;;;;;5.87;2.00;;;;;;;18.33;100.00;101368.09;5143371;29;20456;-68
2021/08/09 08:35:34;;;;;;;4.97;1.90;;;;;;;18.32;100.00;101366.47;5143161;28;20469;-68
2021/08/09 08:38:37;;;;;;;6.75;1.98;;;;;;;18.50;100.00;101359.13;5144482;29;20053;-69
2021/08/09 08:41:14;;;;;;;6.05;1.73;;;;;;;18.36;100.00;101358.00;5143846;29;20474;-69
2021/08/09 08:43:46;;;;;;;5.97;2.35;;;;;;;18.37;100.00;101356.16;5141440;29;20039;-68
2021/08/09 08:46:20;;;;;;;5.63;2.27;;;;;;;18.38;100.00;101356.00;5137450;29;20039;-68
2021/08/09 08:48:52;;;;;;;5.47;1.83;;;;;;;18.53;100.00;101361.47;5142923;29;20644;-68
2021/08/09 08:51:28;;;;;;;6.47;1.90;;;;;;;18.75;100.00;101357.25;5143149;28;20023;-68
2021/08/09 08:53:59;;;;;;;5.82;1.67;;;;;;;19.06;100.00;101361.81;5144183;28;20286;-68
2021/08/09 08:56:30;;;;;;;4.30;1.60;;;;;;;19.26;100.00;101359.53;5144310;28;20031;-68
2021/08/09 08:59:03;;;;;;;8.27;1.97;;;;;;;19.32;99.05;101369.44;5142164;29;20070;-69
2021/08/09 09:01:36;;;;;;;7.57;2.03;;;;;;;19.24;98.12;101366.84;5143154;28;20023;-68
2021/08/09 09:04:26;;;;;;;;;;;;;;;19.48;97.31;101366.72;5143164;29;20034;-68
2021/08/09 09:07:00;;;;;;;4.30;1.90;;;;;;;19.24;98.25;101375.63;5143435;29;19977;-68
2021/08/09 09:09:35;;;;;;;4.20;1.40;;;;;;;19.43;100.00;101375.22;5141864;28;20031;-68
2021/08/09 09:12:13;;;;;;;3.50;1.33;;;;;;;19.62;98.34;101376.63;5144086;28;20065;-68
2021/08/09 09:14:59;;;;;;;5.55;1.95;;;;;;;19.59;95.33;101382.25;5144835;28;20030;-69
2021/08/09 09:17:35;;;;;;;5.18;2.00;;;;;;;19.72;95.38;101378.22;5145488;28;20077;-68
2021/08/09 09:20:27;;;;;;;3.38;1.55;;;;;;;19.98;94.49;101375.19;5144255;29;20027;-68
2021/08/09 09:23:12;;;;;;;3.65;1.75;;;;;;;20.14;92.82;101373.22;5144223;28;20042;-67
2021/08/09 09:25:44;;;;;;;6.15;1.77;;;;;;;20.04;93.32;101380.63;5144043;28;20046;-68
2021/08/09 09:28:26;;;;;;;4.43;1.55;;;;;;;19.93;93.08;101367.75;5141588;29;20130;-68
2021/08/09 09:31:02;;;;;;;6.03;1.55;;;;;;;19.77;91.57;101381.97;5140069;29;20051;-68
2021/08/09 09:33:33;;;;;;;5.10;1.45;;;;;;;19.63;91.24;101380.94;5143327;29;20089;-68
2021/08/09 09:36:06;;;;;;;6.30;1.40;;;;;;;19.66;92.30;101371.75;5143237;28;20030;-68
2021/08/09 09:38:44;;;;;;;4.00;1.60;;;;;;;19.81;91.81;101370.03;5143443;29;22280;-68
2021/08/09 09:41:16;;;;;;;3.13;1.23;;;;;;;19.81;90.58;101375.34;5142790;28;20095;-68
2021/08/09 09:43:48;;;;;;;4.67;1.30;;;;;;;19.81;90.75;101374.47;5142381;28;20093;-71
2021/08/09 09:46:25;;;;;;;4.57;1.45;;;;;;;19.88;90.30;101378.91;5144197;28;20036;-71
2021/08/09 09:49:01;;;;;;;5.38;1.23;;;;;;;20.02;90.15;101374.66;5143508;29;20758;-71
2021/08/09 09:51:45;;;;;;;3.40;1.30;;;;;;;20.25;91.38;101366.63;5142753;29;20035;-71
2021/08/09 09:54:17;;;;;;;5.32;1.58;;;;;;;20.44;89.00;101389.25;5143695;29;20035;-71
2021/08/09 09:56:48;;;;;;;3.63;1.23;;;;;;;20.46;88.65;101379.25;5141380;29;20125;-69
2021/08/09 09:59:20;;;;;;;6.47;1.53;;;;;;;20.45;86.84;101382.06;5143166;29;20038;-69
2021/08/09 10:01:52;;;;;;;6.20;1.83;;;;;;;20.44;87.97;101389.25;5144047;29;20421;-69
2021/08/09 10:04:25;;;;;;;6.10;1.23;;;;;;;20.32;86.07;101390.69;5141429;28;20019;-70
2021/08/09 10:06:56;;;;;;;3.95;1.20;;;;;;;20.16;86.19;101389.84;5142897;29;20039;-69
2021/08/09 10:09:30;;;;;;;5.73;1.70;;;;;;;20.17;88.02;101388.00;5142319;28;20796;-69
2021/08/09 10:12:04;;;;;;;6.25;1.70;;;;;;;20.13;86.86;101384.88;5143951;28;20476;-69
2021/08/09 10:14:35;;;;;;;5.38;1.60;;;;;;;20.08;86.48;101389.09;5144052;29;20524;-69
2021/08/09 10:17:07;;;;;;;4.50;1.60;;;;;;;19.90;86.81;101392.03;5144473;29;20034;-69
2021/08/09 10:19:38;;;;;;;4.40;1.40;;;;;;;19.81;86.89;101395.75;5142973;28;20067;-69
2021/08/09 10:22:10;;;;;;;3.87;1.40;;;;;;;19.74;88.54;101393.00;5142767;29;20559;-70
2021/08/09 10:24:43;;;;;;;4.47;1.40;;;;;;;19.74;87.59;101400.16;5144753;28;20058;-70
2021/08/09 10:27:15;;;;;;;4.80;1.85;;;;;;;19.79;89.04;101401.25;5142169;29;20138;-70
2021/08/09 10:29:58;;;;;;;5.17;1.53;;;;;;;20.00;88.82;101405.09;5141399;28;20058;-71
2021/08/09 10:32:45;;;;;;;5.80;1.45;;;;;;;20.04;89.02;101409.03;5143468;28;20858;-70
2021/08/09 10:35:36;;;;;;;4.95;1.73;;;;;;;20.18;88.63;101405.59;5143531;29;20409;-69
2021/08/09 10:38:19;;;;;;;4.28;1.60;;;;;;;20.27;87.94;101401.06;5142603;29;20062;-70
2021/08/09 10:41:08;;;;;;;;;;;;;;;20.51;87.17;101403.50;5143413;29;20075;-69
2021/08/09 10:44:01;;;;;;;3.25;1.48;;;;;;;20.42;87.36;101405.41;5138144;28;19922;-70
2021/08/09 10:46:39;;;;;;;;;;;;;;;20.61;85.91;101411.25;5143486;29;20323;-69
2021/08/09 10:49:39;;;;;;;4.95;1.42;;;;;;;20.49;85.94;101400.19;5143846;29;20386;-69
2021/08/09 10:52:11;;;;;;;3.78;1.60;;;;;;;20.32;86.35;101406.66;5142180;28;20035;-69
2021/08/09 10:54:42;;;;;;;3.67;1.37;;;;;;;20.30;85.78;101404.16;5144153;29;20353;-70
2021/08/09 10:57:46;;;;;;;4.67;1.40;;;;;;;20.29;85.82;101415.00;5144292;28;20027;-70
2021/08/09 11:00:38;;;;;;;3.90;1.33;;;;;;;20.30;86.57;101403.34;5143500;29;20043;-69
2021/08/09 11:03:14;;;;;;;4.38;1.40;;;;;;;20.32;86.86;101411.97;5142806;29;20023;-69
2021/08/09 11:05:45;;;;;;;3.20;1.30;;;;;;;20.34;86.48;101401.97;5143533;29;20035;-69
2021/08/09 11:08:20;;;;;;;10.30;1.77;;;;;;;20.57;87.04;101413.44;5143554;29;20030;-69
2021/08/09 11:10:51;;;;;;;4.80;1.70;;;;;;;20.93;85.88;101399.38;5140590;28;20056;-70
2021/08/09 11:13:23;;;;;;;5.77;1.60;;;;;;;21.04;84.30;101390.94;5142679;28;20031;-69
2021/08/09 11:15:56;;;;;;;4.65;1.50;;;;;;;21.13;84.88;101389.81;5143448;29;20318;-70
2021/08/09 11:18:29;;;;;;;4.50;1.63;;;;;;;21.10;83.30;101397.34;5144113;28;20043;-71
2021/08/09 11:21:09;;;;;;;5.40;1.58;;;;;;;21.10;82.86;101395.53;5139283;28;20024;-70
2021/08/09 11:23:47;;;;;;;5.15;1.55;;;;;;;21.06;83.18;101404.06;5134954;28;20047;-69
2021/08/09 11:26:22;;;;;;;5.65;1.25;;;;;;;21.08;83.02;101405.53;5142447;29;20343;-69
2021/08/09 11:29:04;;;;;;;4.57;1.75;;;;;;;20.93;83.34;101401.22;5143463;29;20138;-70
2021/08/09 11:31:47;;;;;;;5.07;1.50;;;;;;;21.10;83.76;101406.19;5143123;29;20166;-70
2021/08/09 11:34:18;;;;;;;3.55;1.40;;;;;;;21.03;82.14;101405.28;5144535;29;20708;-70
2021/08/09 11:37:02;;;;;;;6.73;1.60;;;;;;;21.13;82.18;101399.63;5145365;28;20046;-70
2021/08/09 11:39:39;;;;;;;4.72;1.40;;;;;;;20.92;81.35;101399.59;5144493;29;20070;-71
2021/08/09 11:42:11;;;;;;;5.93;1.85;;;;;;;21.07;82.15;101395.91;5143138;29;20166;-70
2021/08/09 11:44:42;;;;;;;9.47;1.30;;;;;;;21.00;81.65;101396.81;5144914;28;20043;-72
2021/08/09 11:47:21;;;;;;;7.67;1.77;;;;;;;20.96;82.49;101398.19;5145909;28;20035;-72
2021/08/09 11:49:55;;;;;;;5.13;1.42;;;;;;;20.79;82.35;101402.88;5143790;29;20501;-70